Aviation Digital Data Service (ADDS)

Output produced by METARs form (0920 UTC 24 October 2017)
found at http://aviationweather.gov/adds/metars/
 
KPSM 240901Z 2409/2506 13012KT 6SM BR BKN090 
     FM241400 16013G24KT 6SM BR OVC015 
     FM250000 16013G25KT P6SM OVC003 WS020/18040KT